sensor_id;sensor_type;location;lat;lon;timestamp;temperature;humidity
19256;DHT22;9762;52.490;13.410;2023-10-19T00:00:40;12.80;79.80
19256;DHT22;9762;52.490;13.410;2023-10-19T00:03:10;12.70;79.90
19256;DHT22;9762;52.490;13.410;2023-10-19T00:05:37;12.70;79.90
19256;DHT22;9762;52.490;13.410;2023-10-19T00:08:05;12.80;79.70
19256;DHT22;9762;52.490;13.410;2023-10-19T00:10:41;12.70;80.10
19256;DHT22;9762;52.490;13.410;2023-10-19T00:13:09;12.80;80.60
19256;DHT22;9762;52.490;13.410;2023-10-19T00:15:37;12.80;79.80
19256;DHT22;9762;52.490;13.410;2023-10-19T00:18:06;12.80;79.70
19256;DHT22;9762;52.490;13.410;2023-10-19T00:20:42;12.90;79.90
19256;DHT22;9762;52.490;13.410;2023-10-19T00:23:13;12.90;79.60
19256;DHT22;9762;52.490;13.410;2023-10-19T00:25:44;12.90;79.50
19256;DHT22;9762;52.490;13.410;2023-10-19T00:28:10;12.90;79.30
19256;DHT22;9762;52.490;13.410;2023-10-19T00:30:40;12.90;79.20
19256;DHT22;9762;52.490;13.410;2023-10-19T00:33:08;12.70;79.70
19256;DHT22;9762;52.490;13.410;2023-10-19T00:35:41;12.60;80.20
19256;DHT22;9762;52.490;13.410;2023-10-19T00:38:23;12.60;80.60
19256;DHT22;9762;52.490;13.410;2023-10-19T00:41:00;12.60;80.20
19256;DHT22;9762;52.490;13.410;2023-10-19T00:43:33;12.60;80.30
19256;DHT22;9762;52.490;13.410;2023-10-19T00:46:03;12.60;80.20
19256;DHT22;9762;52.490;13.410;2023-10-19T00:48:33;12.70;80.00
19256;DHT22;9762;52.490;13.410;2023-10-19T00:51:00;12.80;80.10
19256;DHT22;9762;52.490;13.410;2023-10-19T00:53:37;12.80;79.90
19256;DHT22;9762;52.490;13.410;2023-10-19T00:56:04;12.80;79.70
19256;DHT22;9762;52.490;13.410;2023-10-19T00:58:34;12.90;79.70
19256;DHT22;9762;52.490;13.410;2023-10-19T01:01:05;12.80;79.80
19256;DHT22;9762;52.490;13.410;2023-10-19T01:03:34;12.80;80.10
19256;DHT22;9762;52.490;13.410;2023-10-19T01:06:04;12.80;80.30
19256;DHT22;9762;52.490;13.410;2023-10-19T01:08:38;12.80;80.20
19256;DHT22;9762;52.490;13.410;2023-10-19T01:11:09;12.80;80.10
19256;DHT22;9762;52.490;13.410;2023-10-19T01:13:39;12.80;80.00
19256;DHT22;9762;52.490;13.410;2023-10-19T01:16:14;12.80;80.30
19256;DHT22;9762;52.490;13.410;2023-10-19T01:18:50;12.80;80.10
19256;DHT22;9762;52.490;13.410;2023-10-19T01:21:23;12.90;80.10
19256;DHT22;9762;52.490;13.410;2023-10-19T01:23:53;12.90;80.90
19256;DHT22;9762;52.490;13.410;2023-10-19T01:26:19;12.90;79.80
19256;DHT22;9762;52.490;13.410;2023-10-19T01:28:52;12.90;80.00
19256;DHT22;9762;52.490;13.410;2023-10-19T01:31:27;13.00;79.90
19256;DHT22;9762;52.490;13.410;2023-10-19T01:33:56;13.00;79.80
19256;DHT22;9762;52.490;13.410;2023-10-19T01:36:27;13.00;79.50
19256;DHT22;9762;52.490;13.410;2023-10-19T01:38:54;13.00;79.60
19256;DHT22;9762;52.490;13.410;2023-10-19T01:41:22;13.00;79.70
19256;DHT22;9762;52.490;13.410;2023-10-19T01:43:51;13.00;79.70
19256;DHT22;9762;52.490;13.410;2023-10-19T01:46:21;13.00;79.60
19256;DHT22;9762;52.490;13.410;2023-10-19T01:48:48;13.00;79.50
19256;DHT22;9762;52.490;13.410;2023-10-19T01:51:16;12.90;80.10
19256;DHT22;9762;52.490;13.410;2023-10-19T01:53:42;12.80;80.20
19256;DHT22;9762;52.490;13.410;2023-10-19T01:56:12;12.80;80.30
19256;DHT22;9762;52.490;13.410;2023-10-19T01:58:42;12.70;80.80
19256;DHT22;9762;52.490;13.410;2023-10-19T02:01:08;12.70;80.50
19256;DHT22;9762;52.490;13.410;2023-10-19T02:03:35;12.50;80.90
19256;DHT22;9762;52.490;13.410;2023-10-19T02:06:02;12.60;80.90
19256;DHT22;9762;52.490;13.410;2023-10-19T02:08:45;12.60;80.70
19256;DHT22;9762;52.490;13.410;2023-10-19T02:11:14;12.70;80.90
19256;DHT22;9762;52.490;13.410;2023-10-19T02:13:45;12.70;80.70
19256;DHT22;9762;52.490;13.410;2023-10-19T02:16:18;12.60;80.80
19256;DHT22;9762;52.490;13.410;2023-10-19T02:18:58;12.60;80.90
19256;DHT22;9762;52.490;13.410;2023-10-19T02:21:23;12.70;80.70
19256;DHT22;9762;52.490;13.410;2023-10-19T02:23:56;12.70;80.70
19256;DHT22;9762;52.490;13.410;2023-10-19T02:26:23;12.70;80.90
19256;DHT22;9762;52.490;13.410;2023-10-19T02:28:53;12.70;80.70
19256;DHT22;9762;52.490;13.410;2023-10-19T02:31:19;12.80;80.70
19256;DHT22;9762;52.490;13.410;2023-10-19T02:33:48;12.80;80.50
19256;DHT22;9762;52.490;13.410;2023-10-19T02:36:20;12.80;80.50
19256;DHT22;9762;52.490;13.410;2023-10-19T02:38:46;12.80;80.50
19256;DHT22;9762;52.490;13.410;2023-10-19T02:41:17;12.80;80.40
19256;DHT22;9762;52.490;13.410;2023-10-19T02:43:43;12.80;80.20
19256;DHT22;9762;52.490;13.410;2023-10-19T02:46:15;12.80;80.40
19256;DHT22;9762;52.490;13.410;2023-10-19T02:48:43;12.80;80.70
19256;DHT22;9762;52.490;13.410;2023-10-19T02:51:15;12.80;80.30
19256;DHT22;9762;52.490;13.410;2023-10-19T02:53:41;12.90;80.40
19256;DHT22;9762;52.490;13.410;2023-10-19T02:56:15;12.80;80.30
19256;DHT22;9762;52.490;13.410;2023-10-19T02:58:46;12.80;80.30
19256;DHT22;9762;52.490;13.410;2023-10-19T03:01:19;12.90;80.40
19256;DHT22;9762;52.490;13.410;2023-10-19T03:03:49;12.70;80.60
19256;DHT22;9762;52.490;13.410;2023-10-19T03:06:20;12.80;80.80
19256;DHT22;9762;52.490;13.410;2023-10-19T03:08:46;12.80;80.80
19256;DHT22;9762;52.490;13.410;2023-10-19T03:11:13;12.80;80.60
19256;DHT22;9762;52.490;13.410;2023-10-19T03:13:40;12.80;80.80
19256;DHT22;9762;52.490;13.410;2023-10-19T03:16:07;12.90;80.70
19256;DHT22;9762;52.490;13.410;2023-10-19T03:18:35;12.90;80.70
19256;DHT22;9762;52.490;13.410;2023-10-19T03:21:02;12.90;80.60
19256;DHT22;9762;52.490;13.410;2023-10-19T03:23:28;13.00;80.50
19256;DHT22;9762;52.490;13.410;2023-10-19T03:25:55;13.00;80.30
19256;DHT22;9762;52.490;13.410;2023-10-19T03:28:27;13.00;80.00
19256;DHT22;9762;52.490;13.410;2023-10-19T03:30:54;12.90;79.60
19256;DHT22;9762;52.490;13.410;2023-10-19T03:33:21;12.90;80.00
19256;DHT22;9762;52.490;13.410;2023-10-19T03:35:52;12.90;80.30
19256;DHT22;9762;52.490;13.410;2023-10-19T03:38:19;12.90;80.30
19256;DHT22;9762;52.490;13.410;2023-10-19T03:40:48;13.00;80.20
19256;DHT22;9762;52.490;13.410;2023-10-19T03:43:20;13.00;80.10
19256;DHT22;9762;52.490;13.410;2023-10-19T03:45:49;13.00;80.20
19256;DHT22;9762;52.490;13.410;2023-10-19T03:48:19;12.90;80.10
19256;DHT22;9762;52.490;13.410;2023-10-19T03:51:00;12.90;80.40
19256;DHT22;9762;52.490;13.410;2023-10-19T03:53:27;12.80;80.40
19256;DHT22;9762;52.490;13.410;2023-10-19T03:55:53;12.80;80.60
19256;DHT22;9762;52.490;13.410;2023-10-19T03:58:20;12.90;80.70
19256;DHT22;9762;52.490;13.410;2023-10-19T04:00:47;12.90;80.30
19256;DHT22;9762;52.490;13.410;2023-10-19T04:03:15;12.90;80.40
19256;DHT22;9762;52.490;13.410;2023-10-19T04:05:46;12.90;80.40
19256;DHT22;9762;52.490;13.410;2023-10-19T04:08:14;12.80;80.40
19256;DHT22;9762;52.490;13.410;2023-10-19T04:10:45;12.80;80.70
19256;DHT22;9762;52.490;13.410;2023-10-19T04:13:31;12.70;80.60
19256;DHT22;9762;52.490;13.410;2023-10-19T04:15:56;12.80;80.90
19256;DHT22;9762;52.490;13.410;2023-10-19T04:18:22;12.70;80.70
19256;DHT22;9762;52.490;13.410;2023-10-19T04:20:51;12.70;80.80
19256;DHT22;9762;52.490;13.410;2023-10-19T04:23:19;12.70;80.80
19256;DHT22;9762;52.490;13.410;2023-10-19T04:25:47;12.70;80.80
19256;DHT22;9762;52.490;13.410;2023-10-19T04:28:13;12.70;80.70
19256;DHT22;9762;52.490;13.410;2023-10-19T04:30:56;12.70;80.90
19256;DHT22;9762;52.490;13.410;2023-10-19T04:33:26;12.60;81.00
19256;DHT22;9762;52.490;13.410;2023-10-19T04:35:53;12.60;81.40
19256;DHT22;9762;52.490;13.410;2023-10-19T04:38:23;12.60;81.50
19256;DHT22;9762;52.490;13.410;2023-10-19T04:40:48;12.60;81.40
19256;DHT22;9762;52.490;13.410;2023-10-19T04:43:14;12.70;81.50
19256;DHT22;9762;52.490;13.410;2023-10-19T04:45:42;12.70;81.30
19256;DHT22;9762;52.490;13.410;2023-10-19T04:48:10;12.70;81.00
19256;DHT22;9762;52.490;13.410;2023-10-19T04:50:36;12.40;81.60
19256;DHT22;9762;52.490;13.410;2023-10-19T04:53:02;12.30;81.80
19256;DHT22;9762;52.490;13.410;2023-10-19T04:55:29;12.40;82.00
19256;DHT22;9762;52.490;13.410;2023-10-19T04:57:55;12.40;82.00
19256;DHT22;9762;52.490;13.410;2023-10-19T05:00:22;12.30;82.10
19256;DHT22;9762;52.490;13.410;2023-10-19T05:02:50;12.40;82.20
19256;DHT22;9762;52.490;13.410;2023-10-19T05:05:17;12.40;82.20
19256;DHT22;9762;52.490;13.410;2023-10-19T05:07:43;12.40;82.10
19256;DHT22;9762;52.490;13.410;2023-10-19T05:10:09;12.40;82.10
19256;DHT22;9762;52.490;13.410;2023-10-19T05:12:36;12.50;82.20
19256;DHT22;9762;52.490;13.410;2023-10-19T05:15:02;12.60;82.40
19256;DHT22;9762;52.490;13.410;2023-10-19T05:17:28;12.60;82.10
19256;DHT22;9762;52.490;13.410;2023-10-19T05:19:54;12.60;81.70
19256;DHT22;9762;52.490;13.410;2023-10-19T05:22:19;12.50;81.80
19256;DHT22;9762;52.490;13.410;2023-10-19T05:24:46;12.40;82.10
19256;DHT22;9762;52.490;13.410;2023-10-19T05:27:13;12.30;82.70
19256;DHT22;9762;52.490;13.410;2023-10-19T05:29:38;12.30;82.80
19256;DHT22;9762;52.490;13.410;2023-10-19T05:32:05;12.30;82.80
19256;DHT22;9762;52.490;13.410;2023-10-19T05:34:31;12.20;83.00
19256;DHT22;9762;52.490;13.410;2023-10-19T05:37:00;12.30;83.30
19256;DHT22;9762;52.490;13.410;2023-10-19T05:39:28;12.30;83.10
19256;DHT22;9762;52.490;13.410;2023-10-19T05:41:57;12.10;83.90
19256;DHT22;9762;52.490;13.410;2023-10-19T05:44:27;12.10;84.00
19256;DHT22;9762;52.490;13.410;2023-10-19T05:46:52;12.20;84.20
19256;DHT22;9762;52.490;13.410;2023-10-19T05:49:18;12.20;83.90
19256;DHT22;9762;52.490;13.410;2023-10-19T05:51:43;12.20;83.80
19256;DHT22;9762;52.490;13.410;2023-10-19T05:54:12;12.30;83.80
19256;DHT22;9762;52.490;13.410;2023-10-19T05:56:38;12.30;83.80
19256;DHT22;9762;52.490;13.410;2023-10-19T05:59:04;12.20;84.00
19256;DHT22;9762;52.490;13.410;2023-10-19T06:01:31;12.20;84.10
19256;DHT22;9762;52.490;13.410;2023-10-19T06:03:56;12.20;84.60
19256;DHT22;9762;52.490;13.410;2023-10-19T06:06:22;12.10;85.10
19256;DHT22;9762;52.490;13.410;2023-10-19T06:08:48;12.00;85.30
19256;DHT22;9762;52.490;13.410;2023-10-19T06:11:19;12.00;85.30
19256;DHT22;9762;52.490;13.410;2023-10-19T06:13:45;12.00;85.60
19256;DHT22;9762;52.490;13.410;2023-10-19T06:16:11;12.10;85.70
19256;DHT22;9762;52.490;13.410;2023-10-19T06:18:37;12.20;85.50
19256;DHT22;9762;52.490;13.410;2023-10-19T06:21:03;12.30;85.60
19256;DHT22;9762;52.490;13.410;2023-10-19T06:23:29;12.30;85.30
19256;DHT22;9762;52.490;13.410;2023-10-19T06:25:57;12.20;85.30
19256;DHT22;9762;52.490;13.410;2023-10-19T06:28:22;12.10;85.80
19256;DHT22;9762;52.490;13.410;2023-10-19T06:30:48;12.20;85.90
19256;DHT22;9762;52.490;13.410;2023-10-19T06:33:14;12.20;86.20
19256;DHT22;9762;52.490;13.410;2023-10-19T06:35:39;12.30;86.10
19256;DHT22;9762;52.490;13.410;2023-10-19T06:38:06;12.40;86.40
19256;DHT22;9762;52.490;13.410;2023-10-19T06:40:35;12.30;86.70
19256;DHT22;9762;52.490;13.410;2023-10-19T06:43:04;12.30;86.70
19256;DHT22;9762;52.490;13.410;2023-10-19T06:45:31;12.40;86.40
19256;DHT22;9762;52.490;13.410;2023-10-19T06:47:57;12.50;86.00
19256;DHT22;9762;52.490;13.410;2023-10-19T06:50:23;12.50;85.90
19256;DHT22;9762;52.490;13.410;2023-10-19T06:52:50;12.60;85.70
19256;DHT22;9762;52.490;13.410;2023-10-19T06:55:17;12.50;85.70
19256;DHT22;9762;52.490;13.410;2023-10-19T06:57:49;12.50;86.10
19256;DHT22;9762;52.490;13.410;2023-10-19T07:00:17;12.50;86.20
19256;DHT22;9762;52.490;13.410;2023-10-19T07:02:50;12.60;85.70
19256;DHT22;9762;52.490;13.410;2023-10-19T07:05:17;12.70;85.70
19256;DHT22;9762;52.490;13.410;2023-10-19T07:07:55;12.70;85.40
19256;DHT22;9762;52.490;13.410;2023-10-19T07:10:23;12.70;85.20
19256;DHT22;9762;52.490;13.410;2023-10-19T07:12:51;12.80;85.30
19256;DHT22;9762;52.490;13.410;2023-10-19T07:15:19;12.90;85.40
19256;DHT22;9762;52.490;13.410;2023-10-19T07:17:46;12.90;85.20
19256;DHT22;9762;52.490;13.410;2023-10-19T07:20:14;13.00;85.50
19256;DHT22;9762;52.490;13.410;2023-10-19T07:22:58;13.10;85.40
19256;DHT22;9762;52.490;13.410;2023-10-19T07:25:36;13.00;84.90
19256;DHT22;9762;52.490;13.410;2023-10-19T07:28:13;13.20;84.70
19256;DHT22;9762;52.490;13.410;2023-10-19T07:30:40;13.20;84.60
19256;DHT22;9762;52.490;13.410;2023-10-19T07:33:10;13.20;84.40
19256;DHT22;9762;52.490;13.410;2023-10-19T07:35:37;13.20;84.40
19256;DHT22;9762;52.490;13.410;2023-10-19T07:38:08;13.20;84.50
19256;DHT22;9762;52.490;13.410;2023-10-19T07:40:36;13.20;84.40
19256;DHT22;9762;52.490;13.410;2023-10-19T07:43:02;13.30;83.80
19256;DHT22;9762;52.490;13.410;2023-10-19T07:45:29;13.40;83.50
19256;DHT22;9762;52.490;13.410;2023-10-19T07:47:57;13.40;83.60
19256;DHT22;9762;52.490;13.410;2023-10-19T07:50:34;13.30;83.80
19256;DHT22;9762;52.490;13.410;2023-10-19T07:53:01;13.40;83.70
19256;DHT22;9762;52.490;13.410;2023-10-19T07:55:27;13.40;83.60
19256;DHT22;9762;52.490;13.410;2023-10-19T07:57:53;13.40;83.50
19256;DHT22;9762;52.490;13.410;2023-10-19T08:00:20;13.50;83.50
19256;DHT22;9762;52.490;13.410;2023-10-19T08:02:47;13.50;83.40
19256;DHT22;9762;52.490;13.410;2023-10-19T08:05:14;13.50;83.20
19256;DHT22;9762;52.490;13.410;2023-10-19T08:07:40;13.50;83.20
19256;DHT22;9762;52.490;13.410;2023-10-19T08:10:09;13.60;83.10
19256;DHT22;9762;52.490;13.410;2023-10-19T08:12:36;13.60;83.00
19256;DHT22;9762;52.490;13.410;2023-10-19T08:15:02;13.70;82.80
19256;DHT22;9762;52.490;13.410;2023-10-19T08:17:29;13.70;82.80
19256;DHT22;9762;52.490;13.410;2023-10-19T08:19:55;13.70;82.70
19256;DHT22;9762;52.490;13.410;2023-10-19T08:22:22;13.70;82.70
19256;DHT22;9762;52.490;13.410;2023-10-19T08:24:49;13.70;82.50
19256;DHT22;9762;52.490;13.410;2023-10-19T08:27:15;13.80;82.80
19256;DHT22;9762;52.490;13.410;2023-10-19T08:29:42;13.80;82.70
19256;DHT22;9762;52.490;13.410;2023-10-19T08:32:08;13.80;82.60
19256;DHT22;9762;52.490;13.410;2023-10-19T08:34:35;13.80;82.50
19256;DHT22;9762;52.490;13.410;2023-10-19T08:37:02;13.90;82.50
19256;DHT22;9762;52.490;13.410;2023-10-19T08:39:30;13.90;82.30
19256;DHT22;9762;52.490;13.410;2023-10-19T08:42:05;13.90;82.40
19256;DHT22;9762;52.490;13.410;2023-10-19T08:44:31;13.90;82.40
19256;DHT22;9762;52.490;13.410;2023-10-19T08:46:57;13.80;82.50
19256;DHT22;9762;52.490;13.410;2023-10-19T08:49:24;13.80;82.70
19256;DHT22;9762;52.490;13.410;2023-10-19T08:51:52;13.90;83.00
19256;DHT22;9762;52.490;13.410;2023-10-19T08:54:20;13.80;83.20
19256;DHT22;9762;52.490;13.410;2023-10-19T08:56:46;13.70;83.40
19256;DHT22;9762;52.490;13.410;2023-10-19T08:59:13;13.80;83.30
19256;DHT22;9762;52.490;13.410;2023-10-19T09:01:41;13.70;83.60
19256;DHT22;9762;52.490;13.410;2023-10-19T09:04:11;13.80;83.60
19256;DHT22;9762;52.490;13.410;2023-10-19T09:06:37;13.80;83.30
19256;DHT22;9762;52.490;13.410;2023-10-19T09:09:11;13.90;83.20
19256;DHT22;9762;52.490;13.410;2023-10-19T09:11:48;13.90;83.50
19256;DHT22;9762;52.490;13.410;2023-10-19T09:14:14;13.90;83.80
19256;DHT22;9762;52.490;13.410;2023-10-19T09:16:56;13.90;84.00
19256;DHT22;9762;52.490;13.410;2023-10-19T09:19:43;14.00;84.20
19256;DHT22;9762;52.490;13.410;2023-10-19T09:22:09;14.10;83.90
19256;DHT22;9762;52.490;13.410;2023-10-19T09:24:45;14.00;83.60
19256;DHT22;9762;52.490;13.410;2023-10-19T09:27:11;14.00;84.20
19256;DHT22;9762;52.490;13.410;2023-10-19T09:29:38;14.10;84.70
19256;DHT22;9762;52.490;13.410;2023-10-19T09:32:05;14.10;84.60
19256;DHT22;9762;52.490;13.410;2023-10-19T09:34:32;14.10;83.90
19256;DHT22;9762;52.490;13.410;2023-10-19T09:37:03;14.20;83.80
19256;DHT22;9762;52.490;13.410;2023-10-19T09:39:32;14.20;83.60
19256;DHT22;9762;52.490;13.410;2023-10-19T09:42:10;14.20;83.50
19256;DHT22;9762;52.490;13.410;2023-10-19T09:44:41;14.10;83.50
19256;DHT22;9762;52.490;13.410;2023-10-19T09:47:17;14.10;83.90
19256;DHT22;9762;52.490;13.410;2023-10-19T09:49:47;14.10;83.80
19256;DHT22;9762;52.490;13.410;2023-10-19T09:52:16;14.10;84.30
19256;DHT22;9762;52.490;13.410;2023-10-19T09:57:40;14.20;84.10
19256;DHT22;9762;52.490;13.410;2023-10-19T10:00:08;14.20;84.10
19256;DHT22;9762;52.490;13.410;2023-10-19T10:02:42;14.30;84.50
19256;DHT22;9762;52.490;13.410;2023-10-19T10:10:43;14.50;85.00
19256;DHT22;9762;52.490;13.410;2023-10-19T10:13:37;14.40;84.20
19256;DHT22;9762;52.490;13.410;2023-10-19T10:16:03;14.30;84.50
19256;DHT22;9762;52.490;13.410;2023-10-19T10:18:34;14.30;84.80
19256;DHT22;9762;52.490;13.410;2023-10-19T10:21:19;14.30;84.90
19256;DHT22;9762;52.490;13.410;2023-10-19T10:23:56;14.40;84.80
19256;DHT22;9762;52.490;13.410;2023-10-19T10:26:30;14.40;85.00
19256;DHT22;9762;52.490;13.410;2023-10-19T10:29:21;14.40;85.50
19256;DHT22;9762;52.490;13.410;2023-10-19T10:31:50;14.40;86.50
19256;DHT22;9762;52.490;13.410;2023-10-19T10:37:07;14.40;87.60
19256;DHT22;9762;52.490;13.410;2023-10-19T10:39:38;14.20;88.10
19256;DHT22;9762;52.490;13.410;2023-10-19T10:42:08;14.30;89.10
19256;DHT22;9762;52.490;13.410;2023-10-19T10:44:39;14.30;89.30
19256;DHT22;9762;52.490;13.410;2023-10-19T10:47:10;14.40;89.00
19256;DHT22;9762;52.490;13.410;2023-10-19T10:49:58;14.40;89.30
19256;DHT22;9762;52.490;13.410;2023-10-19T10:54:58;14.60;89.40
19256;DHT22;9762;52.490;13.410;2023-10-19T10:57:31;14.60;89.30
19256;DHT22;9762;52.490;13.410;2023-10-19T11:00:05;14.60;89.20
19256;DHT22;9762;52.490;13.410;2023-10-19T11:02:34;14.60;89.00
19256;DHT22;9762;52.490;13.410;2023-10-19T11:05:01;14.60;89.00
19256;DHT22;9762;52.490;13.410;2023-10-19T11:07:26;14.60;89.00
19256;DHT22;9762;52.490;13.410;2023-10-19T11:09:52;14.50;89.70
19256;DHT22;9762;52.490;13.410;2023-10-19T11:12:17;14.50;89.80
19256;DHT22;9762;52.490;13.410;2023-10-19T11:14:54;14.50;89.60
19256;DHT22;9762;52.490;13.410;2023-10-19T11:17:20;14.50;89.60
19256;DHT22;9762;52.490;13.410;2023-10-19T11:19:49;14.50;89.70
19256;DHT22;9762;52.490;13.410;2023-10-19T11:22:15;14.40;89.50
19256;DHT22;9762;52.490;13.410;2023-10-19T11:24:41;14.40;89.40
19256;DHT22;9762;52.490;13.410;2023-10-19T11:27:06;14.30;89.60
19256;DHT22;9762;52.490;13.410;2023-10-19T11:29:37;14.20;90.00
19256;DHT22;9762;52.490;13.410;2023-10-19T11:32:03;14.20;90.00
19256;DHT22;9762;52.490;13.410;2023-10-19T11:34:30;14.20;90.00
19256;DHT22;9762;52.490;13.410;2023-10-19T11:36:59;14.20;90.00
19256;DHT22;9762;52.490;13.410;2023-10-19T11:39:29;14.20;90.10
19256;DHT22;9762;52.490;13.410;2023-10-19T11:41:54;14.10;90.40
19256;DHT22;9762;52.490;13.410;2023-10-19T11:44:21;14.10;90.40
19256;DHT22;9762;52.490;13.410;2023-10-19T11:46:47;14.10;90.50
19256;DHT22;9762;52.490;13.410;2023-10-19T11:49:13;14.00;90.60
19256;DHT22;9762;52.490;13.410;2023-10-19T11:51:39;14.10;90.60
19256;DHT22;9762;52.490;13.410;2023-10-19T11:54:05;14.20;90.70
19256;DHT22;9762;52.490;13.410;2023-10-19T11:56:33;14.20;90.60
19256;DHT22;9762;52.490;13.410;2023-10-19T11:59:00;14.10;90.70
19256;DHT22;9762;52.490;13.410;2023-10-19T12:01:27;14.20;90.70
19256;DHT22;9762;52.490;13.410;2023-10-19T12:03:53;14.20;90.70
19256;DHT22;9762;52.490;13.410;2023-10-19T12:06:18;14.20;90.80
19256;DHT22;9762;52.490;13.410;2023-10-19T12:08:44;14.20;90.60
19256;DHT22;9762;52.490;13.410;2023-10-19T12:11:10;14.30;90.60
19256;DHT22;9762;52.490;13.410;2023-10-19T12:13:47;14.20;90.70
19256;DHT22;9762;52.490;13.410;2023-10-19T12:16:13;14.20;90.60
19256;DHT22;9762;52.490;13.410;2023-10-19T12:18:41;14.30;90.70
19256;DHT22;9762;52.490;13.410;2023-10-19T12:21:08;14.30;90.80
19256;DHT22;9762;52.490;13.410;2023-10-19T12:23:39;14.30;90.70
19256;DHT22;9762;52.490;13.410;2023-10-19T12:26:05;14.20;90.90
19256;DHT22;9762;52.490;13.410;2023-10-19T12:28:37;14.30;90.90
19256;DHT22;9762;52.490;13.410;2023-10-19T12:31:03;14.30;91.00
19256;DHT22;9762;52.490;13.410;2023-10-19T12:33:31;14.30;91.10
19256;DHT22;9762;52.490;13.410;2023-10-19T12:35:56;14.30;91.10
19256;DHT22;9762;52.490;13.410;2023-10-19T12:38:23;14.30;91.20
19256;DHT22;9762;52.490;13.410;2023-10-19T12:40:50;14.30;91.30
19256;DHT22;9762;52.490;13.410;2023-10-19T12:43:17;14.30;91.30
19256;DHT22;9762;52.490;13.410;2023-10-19T12:45:44;14.30;91.40
19256;DHT22;9762;52.490;13.410;2023-10-19T12:48:16;14.40;91.40
19256;DHT22;9762;52.490;13.410;2023-10-19T12:50:42;14.40;91.30
19256;DHT22;9762;52.490;13.410;2023-10-19T12:53:08;14.40;91.30
19256;DHT22;9762;52.490;13.410;2023-10-19T12:55:34;14.40;91.30
19256;DHT22;9762;52.490;13.410;2023-10-19T12:58:02;14.40;91.30
19256;DHT22;9762;52.490;13.410;2023-10-19T13:00:37;14.40;91.40
19256;DHT22;9762;52.490;13.410;2023-10-19T13:03:07;14.40;91.40
19256;DHT22;9762;52.490;13.410;2023-10-19T13:05:37;14.40;91.50
19256;DHT22;9762;52.490;13.410;2023-10-19T13:08:09;14.10;91.80
19256;DHT22;9762;52.490;13.410;2023-10-19T13:10:39;14.00;92.10
19256;DHT22;9762;52.490;13.410;2023-10-19T13:13:08;13.90;92.20
19256;DHT22;9762;52.490;13.410;2023-10-19T13:15:38;13.80;92.50
19256;DHT22;9762;52.490;13.410;2023-10-19T13:18:05;13.60;92.90
19256;DHT22;9762;52.490;13.410;2023-10-19T13:20:36;13.60;93.20
19256;DHT22;9762;52.490;13.410;2023-10-19T13:23:03;13.50;93.40
19256;DHT22;9762;52.490;13.410;2023-10-19T13:25:33;13.50;93.60
19256;DHT22;9762;52.490;13.410;2023-10-19T13:28:11;13.40;93.60
19256;DHT22;9762;52.490;13.410;2023-10-19T13:30:48;13.40;93.60
19256;DHT22;9762;52.490;13.410;2023-10-19T13:33:15;13.50;93.60
19256;DHT22;9762;52.490;13.410;2023-10-19T13:35:42;13.60;93.30
19256;DHT22;9762;52.490;13.410;2023-10-19T13:38:09;13.70;93.10
19256;DHT22;9762;52.490;13.410;2023-10-19T13:40:39;13.70;92.80
19256;DHT22;9762;52.490;13.410;2023-10-19T13:43:05;13.60;93.00
19256;DHT22;9762;52.490;13.410;2023-10-19T13:45:35;13.40;93.20
19256;DHT22;9762;52.490;13.410;2023-10-19T13:48:05;13.50;93.30
19256;DHT22;9762;52.490;13.410;2023-10-19T13:50:31;13.40;93.50
19256;DHT22;9762;52.490;13.410;2023-10-19T13:52:57;13.40;93.50
19256;DHT22;9762;52.490;13.410;2023-10-19T13:55:25;13.50;93.50
19256;DHT22;9762;52.490;13.410;2023-10-19T13:57:50;13.50;93.30
19256;DHT22;9762;52.490;13.410;2023-10-19T14:00:18;13.50;93.50
19256;DHT22;9762;52.490;13.410;2023-10-19T14:03:01;13.60;93.30
19256;DHT22;9762;52.490;13.410;2023-10-19T14:05:29;13.70;93.20
19256;DHT22;9762;52.490;13.410;2023-10-19T14:07:55;13.70;93.10
19256;DHT22;9762;52.490;13.410;2023-10-19T14:10:21;13.80;93.00
19256;DHT22;9762;52.490;13.410;2023-10-19T14:12:48;13.80;92.90
19256;DHT22;9762;52.490;13.410;2023-10-19T14:15:19;13.60;92.80
19256;DHT22;9762;52.490;13.410;2023-10-19T14:17:46;13.60;93.00
19256;DHT22;9762;52.490;13.410;2023-10-19T14:20:13;13.50;93.20
19256;DHT22;9762;52.490;13.410;2023-10-19T14:22:43;13.50;93.20
19256;DHT22;9762;52.490;13.410;2023-10-19T14:25:10;13.50;93.20
19256;DHT22;9762;52.490;13.410;2023-10-19T14:27:40;13.50;93.50
19256;DHT22;9762;52.490;13.410;2023-10-19T14:30:08;13.50;93.40
19256;DHT22;9762;52.490;13.410;2023-10-19T14:32:37;13.40;93.50
19256;DHT22;9762;52.490;13.410;2023-10-19T14:35:03;13.50;93.40
19256;DHT22;9762;52.490;13.410;2023-10-19T14:37:31;13.40;93.50
19256;DHT22;9762;52.490;13.410;2023-10-19T14:39:57;13.50;93.50
19256;DHT22;9762;52.490;13.410;2023-10-19T14:42:24;13.60;93.40
19256;DHT22;9762;52.490;13.410;2023-10-19T14:44:50;13.70;93.30
19256;DHT22;9762;52.490;13.410;2023-10-19T14:47:15;13.70;93.30
19256;DHT22;9762;52.490;13.410;2023-10-19T14:49:41;13.60;93.30
19256;DHT22;9762;52.490;13.410;2023-10-19T14:52:07;13.60;93.30
19256;DHT22;9762;52.490;13.410;2023-10-19T14:54:32;13.40;93.60
19256;DHT22;9762;52.490;13.410;2023-10-19T14:56:58;13.40;93.80
19256;DHT22;9762;52.490;13.410;2023-10-19T14:59:24;13.40;93.80
19256;DHT22;9762;52.490;13.410;2023-10-19T15:01:49;13.50;93.70
19256;DHT22;9762;52.490;13.410;2023-10-19T15:04:15;13.50;93.60
19256;DHT22;9762;52.490;13.410;2023-10-19T15:06:41;13.60;93.60
19256;DHT22;9762;52.490;13.410;2023-10-19T15:09:07;13.60;93.50
19256;DHT22;9762;52.490;13.410;2023-10-19T15:11:40;13.50;93.50
19256;DHT22;9762;52.490;13.410;2023-10-19T15:14:05;13.50;93.60
19256;DHT22;9762;52.490;13.410;2023-10-19T15:16:31;13.60;93.60
19256;DHT22;9762;52.490;13.410;2023-10-19T15:18:57;13.60;93.70
19256;DHT22;9762;52.490;13.410;2023-10-19T15:21:22;13.70;94.10
19256;DHT22;9762;52.490;13.410;2023-10-19T15:23:48;13.80;94.00
19256;DHT22;9762;52.490;13.410;2023-10-19T15:26:18;13.70;93.70
19256;DHT22;9762;52.490;13.410;2023-10-19T15:28:44;13.70;93.60
19256;DHT22;9762;52.490;13.410;2023-10-19T15:31:10;13.70;93.50
19256;DHT22;9762;52.490;13.410;2023-10-19T15:33:36;13.70;93.50
19256;DHT22;9762;52.490;13.410;2023-10-19T15:36:01;13.80;93.40
19256;DHT22;9762;52.490;13.410;2023-10-19T15:38:27;13.80;93.40
19256;DHT22;9762;52.490;13.410;2023-10-19T15:40:52;13.80;93.30
19256;DHT22;9762;52.490;13.410;2023-10-19T15:43:20;13.70;93.50
19256;DHT22;9762;52.490;13.410;2023-10-19T15:45:46;13.60;93.60
19256;DHT22;9762;52.490;13.410;2023-10-19T15:48:14;13.60;93.70
19256;DHT22;9762;52.490;13.410;2023-10-19T15:50:41;13.60;93.80
19256;DHT22;9762;52.490;13.410;2023-10-19T15:53:07;13.60;93.80